Time;durP1;ratioP1;P1;durP2;ratioP2;P2;SDS_P1;SDS_P2;PMS_P1;PMS_P2;Temp;Humidity;BMP_temperature;BMP_pressure;BME280_temperature;BME280_humidity;BME280_pressure;Samples;Min_cycle;Max_cycle;Signal;HPM_P1;HPM_P2
2022/09/03 00:02:23;;;;;;;;;;;;;;;17.18;100.00;147050.72;5054963;28;19968;-83
2022/09/03 00:04:56;;;;;;;;;;;;;;;17.11;100.00;147034.13;5056304;28;19917;-82
2022/09/03 00:07:54;;;;;;;;;;;;;;;17.06;100.00;147021.34;5055612;28;19917;-80
2022/09/03 00:10:52;;;;;;;;;;;;;;;17.05;100.00;147020.06;5046761;28;19970;-83
2022/09/03 00:13:26;;;;;;;;;;;;;;;17.05;100.00;147018.78;5032966;28;19959;-83
2022/09/03 00:15:53;;;;;;;;;;;;;;;17.00;100.00;147007.28;5055868;28;20365;-83
2022/09/03 00:18:21;;;;;;;;;;;;;;;17.00;100.00;147007.28;5054244;28;19920;-78
2022/09/03 00:20:53;;;;;;;;;;;;;;;17.00;100.00;147006.03;5056066;28;19916;-79
2022/09/03 00:23:22;;;;;;;;;;;;;;;16.95;100.00;146993.22;5054825;28;19943;-79
2022/09/03 00:25:51;;;;;;;;;;;;;;;16.95;100.00;146993.22;5055265;28;20404;-82
2022/09/03 00:28:19;;;;;;;;;;;;;;;16.91;100.00;146983.00;5055246;28;20331;-80
2022/09/03 00:30:45;;;;;;;;;;;;;;;16.87;100.00;146974.03;5055311;28;20008;-81
2022/09/03 00:33:24;;;;;;;;;;;;;;;16.82;100.00;146962.47;5054273;28;19917;-80
2022/09/03 00:35:52;;;;;;;;;;;;;;;16.81;100.00;146958.66;5054765;28;19971;-78
2022/09/03 00:38:18;;;;;;;;;;;;;;;16.82;100.00;146961.22;5054761;28;19917;-79
2022/09/03 00:40:47;;;;;;;;;;;;;;;16.79;100.00;146954.81;5054186;28;20396;-81
2022/09/03 00:43:27;;;;;;;;;;;;;;;16.73;100.00;146939.47;5055113;28;19917;-81
2022/09/03 00:46:06;;;;;;;;;;;;;;;16.72;100.00;146936.97;5054479;28;20293;-80
2022/09/03 00:48:50;;;;;;;;;;;;;;;16.71;100.00;146934.38;5054279;28;20015;-79
2022/09/03 00:51:30;;;;;;;;;;;;;;;16.70;100.00;146931.81;5053802;28;19916;-82
2022/09/03 00:54:06;;;;;;;;;;;;;;;16.67;100.00;146925.47;5054595;28;20253;-83
2022/09/03 00:56:39;;;;;;;;;;;;;;;16.61;100.00;146908.81;5053335;28;19916;-80
2022/09/03 00:59:14;;;;;;;;;;;;;;;16.62;100.00;146911.38;5054877;28;19960;-84
2022/09/03 01:01:59;;;;;;;;;;;;;;;16.64;100.00;146916.47;5053023;28;19917;-77
2022/09/03 01:04:34;;;;;;;;;;;;;;;16.62;100.00;146912.66;5050700;28;19921;-75
2022/09/03 01:07:13;;;;;;;;;;;;;;;16.63;100.00;146913.97;5051432;28;20307;-75
2022/09/03 01:09:38;;;;;;;;;;;;;;;16.61;100.00;146910.13;5052350;28;20262;-74
2022/09/03 01:12:13;;;;;;;;;;;;;;;16.58;100.00;146901.16;5052822;28;19924;-74
2022/09/03 01:15:00;;;;;;;;;;;;;;;16.57;100.00;146898.63;5052297;28;20007;-75
2022/09/03 01:17:31;;;;;;;;;;;;;;;16.59;100.00;146903.72;5053119;28;19952;-80
2022/09/03 01:19:56;;;;;;;;;;;;;;;16.59;100.00;146903.72;5052706;28;19921;-79
2022/09/03 01:22:39;;;;;;;;;;;;;;;16.60;100.00;146906.28;5053052;28;19913;-78
2022/09/03 01:25:32;;;;;;;;;;;;;;;16.60;100.00;146906.28;5054534;28;19917;-76
2022/09/03 01:28:12;;;;;;;;;;;;;;;16.62;100.00;146912.66;5054089;28;20422;-77
2022/09/03 01:30:40;;;;;;;;;;;;;;;16.64;100.00;146917.78;5054004;28;19917;-81
2022/09/03 01:33:15;;;;;;;;;;;;;;;16.66;100.00;146921.63;5054406;28;19917;-78
2022/09/03 01:35:45;;;;;;;;;;;;;;;16.69;100.00;146930.56;5053544;28;20057;-80
2022/09/03 01:38:10;;;;;;;;;;;;;;;16.67;100.00;146924.16;5053522;28;19921;-75
2022/09/03 01:40:38;;;;;;;;;;;;;;;16.65;100.00;146919.06;5053515;28;19920;-79
2022/09/03 01:43:17;;;;;;;;;;;;;;;16.63;100.00;146913.97;5054053;28;19916;-78
2022/09/03 01:45:47;;;;;;;;;;;;;;;16.60;100.00;146906.28;5054070;28;20248;-80
2022/09/03 01:48:31;;;;;;;;;;;;;;;16.64;100.00;146916.47;5054540;28;19923;-77
2022/09/03 01:50:59;;;;;;;;;;;;;;;16.60;100.00;146906.28;5054130;28;19916;-79
2022/09/03 01:53:30;;;;;;;;;;;;;;;16.61;100.00;146908.81;5053365;28;20429;-81
2022/09/03 01:56:06;;;;;;;;;;;;;;;16.56;100.00;146896.06;5054340;28;19919;-83
2022/09/03 01:58:42;;;;;;;;;;;;;;;16.59;100.00;146903.72;5057471;28;19921;-82
2022/09/03 02:01:20;;;;;;;;;;;;;;;16.56;100.00;146897.31;5054999;28;19955;-79
2022/09/03 02:03:58;;;;;;;;;;;;;;;16.57;100.00;146899.88;5056188;28;19917;-82
2022/09/03 02:06:25;;;;;;;;;;;;;;;16.45;100.00;146870.53;5056879;28;19936;-82
2022/09/03 02:08:50;;;;;;;;;;;;;;;16.41;100.00;146860.28;5053996;28;19960;-80
2022/09/03 02:11:16;;;;;;;;;;;;;;;16.44;100.00;146867.97;5054858;28;19967;-81
2022/09/03 02:13:47;;;;;;;;;;;;;;;16.40;100.00;146856.47;5054364;28;20323;-82
2022/09/03 02:16:19;;;;;;;;;;;;;;;16.43;100.00;146865.38;5055357;28;19940;-81
2022/09/03 02:18:49;;;;;;;;;;;;;;;16.45;100.00;146869.22;5057495;28;19943;-79
2022/09/03 02:21:16;;;;;;;;;;;;;;;16.38;100.00;146852.63;5057837;28;19971;-80
2022/09/03 02:23:44;;;;;;;;;;;;;;;16.36;100.00;146847.53;5057509;28;19920;-82
2022/09/03 02:26:10;;;;;;;;;;;;;;;16.33;100.00;146841.13;5056962;28;19919;-80
2022/09/03 02:28:36;;;;;;;;;;;;;;;16.32;100.00;146838.56;5054797;28;19924;-83
2022/09/03 02:31:02;;;;;;;;;;;;;;;16.24;100.00;146818.13;5056611;28;19917;-82
2022/09/03 02:33:36;;;;;;;;;;;;;;;16.21;100.00;146810.47;5055097;28;19917;-82
2022/09/03 02:36:03;;;;;;;;;;;;;;;16.12;100.00;146787.47;5055201;28;20276;-82
2022/09/03 02:38:28;;;;;;;;;;;;;;;16.08;100.00;146777.25;5055189;28;19924;-82
2022/09/03 02:40:54;;;;;;;;;;;;;;;16.02;100.00;146761.91;5053987;28;19917;-80
2022/09/03 02:43:40;;;;;;;;;;;;;;;16.02;100.00;146761.91;5052662;28;20343;-84
2022/09/03 02:46:07;;;;;;;;;;;;;;;15.94;100.00;146742.75;5053966;28;19916;-83
2022/09/03 02:48:33;;;;;;;;;;;;;;;15.87;100.00;146726.19;5054204;28;19946;-82
2022/09/03 02:50:58;;;;;;;;;;;;;;;15.84;100.00;146717.25;5055150;28;19999;-82
2022/09/03 02:53:27;;;;;;;;;;;;;;;15.82;100.00;146712.09;5056082;28;19917;-82
2022/09/03 02:55:52;;;;;;;;;;;;;;;15.75;100.00;146695.47;5055374;28;19913;-83
2022/09/03 02:58:17;;;;;;;;;;;;;;;15.67;100.00;146676.31;5053810;28;20191;-81
2022/09/03 03:00:43;;;;;;;;;;;;;;;15.63;100.00;146666.16;5053790;28;20365;-82
2022/09/03 03:03:08;;;;;;;;;;;;;;;15.54;100.00;146644.41;5055460;28;20002;-78
2022/09/03 03:05:42;;;;;;;;;;;;;;;15.49;100.00;146631.66;5055170;28;19916;-82
2022/09/03 03:08:08;;;;;;;;;;;;;;;15.46;100.00;146622.69;5055895;28;19913;-83
2022/09/03 03:10:34;;;;;;;;;;;;;;;15.41;100.00;146611.22;5055635;28;19917;-82
2022/09/03 03:13:02;;;;;;;;;;;;;;;15.44;100.00;146618.88;5054772;28;19989;-79
2022/09/03 03:15:27;;;;;;;;;;;;;;;15.39;100.00;146606.13;5056700;28;19916;-78
2022/09/03 03:17:56;;;;;;;;;;;;;;;15.35;100.00;146597.19;5056492;28;20324;-82
2022/09/03 03:20:21;;;;;;;;;;;;;;;15.26;100.00;146574.22;5053131;28;19970;-81
2022/09/03 03:22:51;;;;;;;;;;;;;;;15.23;100.00;146567.81;5052483;28;19999;-83
2022/09/03 03:25:16;;;;;;;;;;;;;;;15.19;100.00;146557.59;5052464;28;19916;-79
2022/09/03 03:27:42;;;;;;;;;;;;;;;15.15;100.00;146547.41;5053855;28;19927;-80
2022/09/03 03:30:11;;;;;;;;;;;;;;;15.11;100.00;146535.94;5051651;28;20010;-76
2022/09/03 03:32:36;;;;;;;;;;;;;;;15.11;100.00;146535.94;5051822;28;19967;-82
2022/09/03 03:35:02;;;;;;;;;;;;;;;15.11;100.00;146535.94;5053538;28;20323;-75
2022/09/03 03:37:28;;;;;;;;;;;;;;;15.07;100.00;146526.97;5050195;28;20572;-76
2022/09/03 03:39:53;;;;;;;;;;;;;;;15.06;100.00;146524.44;5050223;28;19921;-75
2022/09/03 03:42:18;;;;;;;;;;;;;;;15.04;100.00;146519.34;5050363;28;19971;-75
2022/09/03 03:44:44;;;;;;;;;;;;;;;15.07;100.00;146528.28;5050058;28;19917;-74
2022/09/03 03:47:09;;;;;;;;;;;;;;;15.07;100.00;146526.97;5049539;28;19931;-76
2022/09/03 03:49:34;;;;;;;;;;;;;;;15.03;100.00;146518.03;5049379;28;20023;-75
2022/09/03 03:52:01;;;;;;;;;;;;;;;15.02;100.00;146515.53;5049660;28;20007;-76
2022/09/03 03:54:27;;;;;;;;;;;;;;;14.98;100.00;146505.28;5055188;28;19921;-77
2022/09/03 03:56:52;;;;;;;;;;;;;;;15.00;100.00;146510.38;5056896;28;20444;-78
2022/09/03 03:59:17;;;;;;;;;;;;;;;14.99;100.00;146507.88;5057361;28;20369;-80
2022/09/03 04:01:43;;;;;;;;;;;;;;;14.93;100.00;146492.56;5057964;28;19919;-82
2022/09/03 04:04:15;;;;;;;;;;;;;;;14.92;100.00;146489.97;5059972;28;20015;-77
2022/09/03 04:06:40;;;;;;;;;;;;;;;14.91;100.00;146487.41;5058680;28;19920;-82
2022/09/03 04:09:06;;;;;;;;;;;;;;;14.92;100.00;146489.97;5060733;28;20011;-80
2022/09/03 04:11:31;;;;;;;;;;;;;;;14.94;100.00;146493.81;5059010;28;19916;-81
2022/09/03 04:14:09;;;;;;;;;;;;;;;14.90;100.00;146484.91;5058982;28;19925;-83
2022/09/03 04:16:35;;;;;;;;;;;;;;;14.86;100.00;146474.66;5057420;28;19924;-80
2022/09/03 04:19:00;;;;;;;;;;;;;;;14.85;100.00;146472.09;5058509;28;19921;-82
2022/09/03 04:21:27;;;;;;;;;;;;;;;14.84;100.00;146470.84;5062091;28;19942;-82
2022/09/03 04:23:52;;;;;;;;;;;;;;;14.82;100.00;146464.44;5056819;28;20005;-83
2022/09/03 04:26:21;;;;;;;;;;;;;;;14.84;100.00;146469.56;5056032;28;20352;-77
2022/09/03 04:28:47;;;;;;;;;;;;;;;14.80;100.00;146460.63;5057209;28;19916;-80
2022/09/03 04:31:13;;;;;;;;;;;;;;;14.82;100.00;146464.44;5055069;28;19924;-81
2022/09/03 04:33:41;;;;;;;;;;;;;;;14.82;100.00;146464.44;5056081;28;20004;-78
2022/09/03 04:36:10;;;;;;;;;;;;;;;14.80;100.00;146460.63;5056416;28;19920;-77
2022/09/03 04:38:37;;;;;;;;;;;;;;;14.79;100.00;146458.09;5056666;28;19921;-81
2022/09/03 04:41:03;;;;;;;;;;;;;;;14.79;100.00;146456.78;5055539;28;19917;-81
2022/09/03 04:43:31;;;;;;;;;;;;;;;14.72;100.00;146441.47;5056106;28;20341;-81
2022/09/03 04:45:57;;;;;;;;;;;;;;;14.71;100.00;146437.66;5058751;28;19948;-77
2022/09/03 04:48:23;;;;;;;;;;;;;;;14.62;100.00;146416.00;5059203;28;19940;-81
2022/09/03 04:50:48;;;;;;;;;;;;;;;14.61;100.00;146412.16;5055967;28;19940;-83
2022/09/03 04:53:14;;;;;;;;;;;;;;;14.62;100.00;146416.00;5040635;28;19963;-79
2022/09/03 04:55:39;;;;;;;;;;;;;;;14.62;100.00;146414.69;5058402;28;19924;-80
2022/09/03 04:58:06;;;;;;;;;;;;;;;14.62;100.00;146414.69;5057397;28;19917;-81
2022/09/03 05:00:32;;;;;;;;;;;;;;;14.59;100.00;146408.28;5058080;28;20007;-81
2022/09/03 05:03:00;;;;;;;;;;;;;;;14.58;100.00;146405.72;5058629;28;19975;-78
2022/09/03 05:05:25;;;;;;;;;;;;;;;14.57;100.00;146401.88;5058551;28;19917;-82
2022/09/03 05:07:52;;;;;;;;;;;;;;;14.57;100.00;146403.16;5055174;28;20281;-78
2022/09/03 05:10:22;;;;;;;;;;;;;;;14.54;100.00;146395.50;5056961;28;20008;-81
2022/09/03 05:12:57;;;;;;;;;;;;;;;14.63;100.00;146418.50;5088810;28;19975;-76
2022/09/03 05:15:22;;;;;;;;;;;;;;;14.61;100.00;146413.41;5054832;28;19920;-82
2022/09/03 05:17:47;;;;;;;;;;;;;;;14.63;100.00;146418.50;5054381;28;20393;-78
2022/09/03 05:20:13;;;;;;;;;;;;;;;14.75;100.00;146446.63;5054585;28;19923;-80
2022/09/03 05:22:40;;;;;;;;;;;;;;;14.76;100.00;146450.44;5057702;28;19921;-82
2022/09/03 05:25:05;;;;;;;;;;;;;;;14.93;100.00;146491.25;5055097;28;19917;-79
2022/09/03 05:27:30;;;;;;;;;;;;;;;15.51;100.00;146635.50;5056054;28;19924;-78
2022/09/03 05:29:56;;;;;;;;;;;;;;;16.08;100.00;146778.56;5055772;28;19916;-83
2022/09/03 05:32:24;;;;;;;;;;;;;;;16.73;100.00;146938.22;5054607;28;19917;-79
2022/09/03 05:34:49;;;;;;;;;;;;;;;16.86;100.00;146972.78;5057317;28;19916;-79
2022/09/03 05:37:14;;;;;;;;;;;;;;;17.30;100.00;147080.13;5055167;28;19924;-82
2022/09/03 05:39:39;;;;;;;;;;;;;;;17.35;100.00;147092.91;5055883;28;19928;-80
2022/09/03 05:42:05;;;;;;;;;;;;;;;17.67;100.00;147173.47;5053854;28;19916;-77
2022/09/03 05:44:30;;;;;;;;;;;;;;;18.06;100.00;147270.69;5054701;28;19916;-77
2022/09/03 05:46:56;;;;;;;;;;;;;;;18.58;100.00;147398.59;5054201;28;19917;-79
2022/09/03 05:49:21;;;;;;;;;;;;;;;18.68;100.00;147422.97;5053548;28;20450;-80
2022/09/03 05:51:46;;;;;;;;;;;;;;;19.06;100.00;147518.94;5053286;28;20365;-81
2022/09/03 05:54:14;;;;;;;;;;;;;;;19.16;100.00;147544.56;5052923;28;19944;-83
2022/09/03 05:56:41;;;;;;;;;;;;;;;19.18;100.00;147548.41;5053800;28;19913;-82
2022/09/03 05:59:08;;;;;;;;;;;;;;;19.13;100.00;147535.63;5054219;28;19931;-80
2022/09/03 06:01:44;;;;;;;;;;;;;;;19.28;100.00;147572.72;5052417;28;19920;-82
2022/09/03 06:04:11;;;;;;;;;;;;;;;19.68;100.00;147672.56;5052988;28;19913;-83
2022/09/03 06:06:38;;;;;;;;;;;;;;;19.00;100.00;147504.91;5051904;28;19916;-76
2022/09/03 06:09:07;;;;;;;;;;;;;;;18.06;100.00;147270.69;5052319;28;19946;-79
2022/09/03 06:11:34;;;;;;;;;;;;;;;17.61;100.00;147156.84;5051686;28;20289;-75
2022/09/03 06:14:06;;;;;;;;;;;;;;;17.01;100.00;147008.53;5051296;28;19942;-78
2022/09/03 06:16:33;;;;;;;;;;;;;;;16.98;100.00;147000.88;5052966;28;19917;-75
2022/09/03 06:18:58;;;;;;;;;;;;;;;16.95;100.00;146993.22;5051974;28;19940;-76
2022/09/03 06:21:23;;;;;;;;;;;;;;;16.94;100.00;146990.69;5050920;28;20545;-75
2022/09/03 06:23:58;;;;;;;;;;;;;;;16.95;100.00;146994.53;5051580;28;19970;-84
2022/09/03 06:26:23;;;;;;;;;;;;;;;16.82;100.00;146962.47;5055886;28;19917;-82
2022/09/03 06:28:49;;;;;;;;;;;;;;;16.82;100.00;146962.47;5053714;28;19917;-74
2022/09/03 06:31:15;;;;;;;;;;;;;;;16.73;100.00;146939.47;5050454;28;19923;-82
2022/09/03 06:33:42;;;;;;;;;;;;;;;16.85;100.00;146968.88;5050770;28;19924;-73
2022/09/03 06:36:08;;;;;;;;;;;;;;;17.09;100.00;147029.03;5050171;28;19947;-74
2022/09/03 06:38:37;;;;;;;;;;;;;;;17.38;100.00;147100.59;5052163;28;19970;-81
2022/09/03 06:41:06;;;;;;;;;;;;;;;18.20;100.00;147303.97;5050441;28;20297;-78
2022/09/03 06:43:34;;;;;;;;;;;;;;;18.61;100.00;147406.28;5050454;28;19916;-74
2022/09/03 06:46:01;;;;;;;;;;;;;;;18.65;100.00;147416.53;5050045;28;19917;-75
2022/09/03 06:48:26;;;;;;;;;;;;;;;18.50;100.00;147379.41;5051547;28;19917;-81
2022/09/03 06:50:56;;;;;;;;;;;;;;;18.48;100.00;147375.56;5050763;28;20055;-79
2022/09/03 06:53:22;;;;;;;;;;;;;;;18.22;100.00;147309.06;5050732;28;19917;-75
2022/09/03 06:56:01;;;;;;;;;;;;;;;17.90;100.00;147229.81;5052846;28;20011;-76
2022/09/03 06:58:30;;;;;;;;;;;;;;;18.12;100.00;147284.78;5053471;28;19917;-81
2022/09/03 07:01:12;;;;;;;;;;;;;;;18.12;100.00;147286.03;5050716;28;20134;-74
2022/09/03 07:03:39;;;;;;;;;;;;;;;17.96;100.00;147245.16;5050068;28;19920;-74
2022/09/03 07:06:08;;;;;;;;;;;;;;;17.87;100.00;147223.34;5049812;28;20384;-74
2022/09/03 07:08:34;;;;;;;;;;;;;;;18.00;100.00;147254.09;5050893;28;19939;-74
2022/09/03 07:11:02;;;;;;;;;;;;;;;18.20;100.00;147305.22;5049444;28;20229;-74
2022/09/03 07:13:28;;;;;;;;;;;;;;;18.27;100.00;147323.16;5050164;28;19940;-75
2022/09/03 07:16:06;;;;;;;;;;;;;;;18.19;100.00;147301.41;5050108;28;19920;-77
2022/09/03 07:18:32;;;;;;;;;;;;;;;18.01;100.00;147256.66;5050207;28;19917;-79
2022/09/03 07:20:58;;;;;;;;;;;;;;;18.02;100.00;147260.50;5049977;28;19923;-82
2022/09/03 07:23:24;;;;;;;;;;;;;;;18.03;100.00;147261.75;5051006;28;19917;-79
2022/09/03 07:25:54;;;;;;;;;;;;;;;18.11;100.00;147282.22;5052116;28;20458;-83
2022/09/03 07:28:19;;;;;;;;;;;;;;;18.34;100.00;147339.78;5053526;28;19968;-80
2022/09/03 07:30:44;;;;;;;;;;;;;;;18.39;100.00;147351.28;5054082;28;20546;-82
2022/09/03 07:33:10;;;;;;;;;;;;;;;18.39;100.00;147352.56;5053854;28;20341;-79
2022/09/03 07:35:35;;;;;;;;;;;;;;;18.55;100.00;147392.25;5054433;28;19920;-78
2022/09/03 07:38:01;;;;;;;;;;;;;;;18.52;100.00;147384.56;5054521;28;19964;-81
2022/09/03 07:40:26;;;;;;;;;;;;;;;18.66;100.00;147419.13;5054771;28;19920;-82
2022/09/03 07:42:54;;;;;;;;;;;;;;;18.85;100.00;147466.50;5055346;28;20037;-79
2022/09/03 07:45:19;;;;;;;;;;;;;;;19.38;100.00;147599.59;5054346;28;19920;-80
2022/09/03 07:47:46;;;;;;;;;;;;;;;20.06;100.00;147767.41;5054472;28;19936;-81
2022/09/03 07:50:11;;;;;;;;;;;;;;;20.56;100.00;147891.66;5055106;28;20476;-77
2022/09/03 07:52:37;;;;;;;;;;;;;;;21.10;100.00;148027.53;5054209;28;20003;-80
2022/09/03 07:55:03;;;;;;;;;;;;;;;21.09;100.00;148023.69;5053438;28;19916;-80
2022/09/03 07:57:28;;;;;;;;;;;;;;;21.67;100.00;148168.59;5054399;28;19939;-82
2022/09/03 07:59:54;;;;;;;;;;;;;;;22.06;100.00;148266.03;5053333;28;20296;-76
2022/09/03 08:02:23;;;;;;;;;;;;;;;22.69;100.00;148422.63;5053847;28;20142;-82
2022/09/03 08:04:49;;;;;;;;;;;;;;;22.71;100.00;148429.00;5054983;28;19970;-81
2022/09/03 08:07:14;;;;;;;;;;;;;;;22.68;100.00;148420.03;5053714;28;19920;-83
2022/09/03 08:09:39;;;;;;;;;;;;;;;22.69;100.00;148422.63;5054222;28;19932;-78
2022/09/03 08:12:05;;;;;;;;;;;;;;;23.22;100.00;148554.84;5037001;28;19920;-80
2022/09/03 08:14:35;;;;;;;;;;;;;;;23.30;100.00;148575.34;5053717;28;20070;-79
2022/09/03 08:17:00;;;;;;;;;;;;;;;22.46;100.00;148366.16;5053367;28;19924;-77
2022/09/03 08:19:26;;;;;;;;;;;;;;;22.81;100.00;148453.41;5056401;28;19917;-84
2022/09/03 08:21:51;;;;;;;;;;;;;;;22.92;100.00;148481.63;5053894;28;19923;-83
2022/09/03 08:24:20;;;;;;;;;;;;;;;22.61;100.00;148402.06;5053932;28;20324;-80
2022/09/03 08:26:45;;;;;;;;;;;;;;;22.30;100.00;148326.41;5053908;28;19924;-83
2022/09/03 08:29:11;;;;;;;;;;;;;;;22.67;100.00;148417.44;5053765;28;19913;-83
2022/09/03 08:31:37;;;;;;;;;;;;;;;22.62;100.00;148405.91;5054618;28;19971;-83
2022/09/03 08:34:05;;;;;;;;;;;;;;;22.77;100.00;148443.13;5051866;28;20043;-83
2022/09/03 08:36:31;;;;;;;;;;;;;;;23.02;100.00;148504.72;5052356;28;19925;-79
2022/09/03 08:39:02;;;;;;;;;;;;;;;22.95;100.00;148488.06;5051929;28;19927;-79
2022/09/03 08:41:46;;;;;;;;;;;;;;;22.73;100.00;148434.16;5051969;28;20000;-75
2022/09/03 08:44:24;;;;;;;;;;;;;;;22.74;100.00;148435.44;5051684;28;20345;-75
2022/09/03 08:46:58;;;;;;;;;;;;;;;22.85;100.00;148463.66;5053193;28;19996;-83
2022/09/03 08:49:38;;;;;;;;;;;;;;;22.82;100.00;148454.69;5052994;28;19924;-83
2022/09/03 08:52:07;;;;;;;;;;;;;;;23.30;100.00;148576.69;5052026;28;19927;-76
2022/09/03 08:54:35;;;;;;;;;;;;;;;23.23;100.00;148557.41;5051723;28;19924;-75
2022/09/03 08:57:02;;;;;;;;;;;;;;;23.35;100.00;148586.91;5051153;28;20007;-76
2022/09/03 08:59:28;;;;;;;;;;;;;;;23.12;100.00;148530.47;5051604;28;19921;-77
2022/09/03 09:02:12;;;;;;;;;;;;;;;23.64;100.00;148660.09;5051737;28;19921;-76
2022/09/03 09:04:59;;;;;;;;;;;;;;;23.01;100.00;148502.16;5052296;28;19917;-78
2022/09/03 09:07:27;;;;;;;;;;;;;;;23.11;100.00;148527.88;5052010;28;19966;-76
2022/09/03 09:10:03;;;;;;;;;;;;;;;23.47;100.00;148617.72;5052102;28;19940;-76
2022/09/03 09:12:34;;;;;;;;;;;;;;;23.56;100.00;148639.56;5051482;28;19917;-76
2022/09/03 09:15:02;;;;;;;;;;;;;;;23.43;100.00;148607.44;5051532;28;19952;-81
2022/09/03 09:17:46;;;;;;;;;;;;;;;23.54;100.00;148634.41;5051615;28;19917;-75
2022/09/03 09:20:18;;;;;;;;;;;;;;;23.75;100.00;148687.06;5051498;28;19917;-77
2022/09/03 09:22:54;;;;;;;;;;;;;;;23.39;100.00;148597.19;5051808;28;20023;-75
2022/09/03 09:25:21;;;;;;;;;;;;;;;23.12;100.00;148531.72;5051636;28;19917;-80
2022/09/03 09:28:06;;;;;;;;;;;;;;;23.30;100.00;148576.69;5051813;28;19916;-80
2022/09/03 09:30:32;;;;;;;;;;;;;;;23.25;100.00;148563.81;5050605;28;19920;-77
2022/09/03 09:32:59;;;;;;;;;;;;;;;23.08;100.00;148520.13;5051417;28;19963;-75
2022/09/03 09:35:24;;;;;;;;;;;;;;;23.00;100.00;148499.63;5051518;28;19921;-75
2022/09/03 09:37:52;;;;;;;;;;;;;;;23.12;100.00;148531.72;5050592;28;20407;-76
2022/09/03 09:40:25;;;;;;;;;;;;;;;22.99;100.00;148497.03;5051308;28;20015;-76
2022/09/03 09:42:51;;;;;;;;;;;;;;;23.16;100.00;148539.44;5050935;28;19942;-75
2022/09/03 09:45:18;;;;;;;;;;;;;;;23.34;100.00;148584.34;5051240;28;19951;-80
2022/09/03 09:47:45;;;;;;;;;;;;;;;23.16;100.00;148540.72;5052551;28;19917;-75
2022/09/03 09:50:20;;;;;;;;;;;;;;;23.22;100.00;148556.09;5049565;28;19928;-75
2022/09/03 09:52:47;;;;;;;;;;;;;;;23.72;100.00;148680.63;5050325;28;19923;-77
2022/09/03 09:55:17;;;;;;;;;;;;;;;23.83;100.00;148707.59;5051538;28;19951;-76
2022/09/03 09:57:42;;;;;;;;;;;;;;;23.80;100.00;148701.19;5051388;28;20368;-75
2022/09/03 10:00:11;;;;;;;;;;;;;;;23.83;100.00;148707.59;5050303;28;19917;-77
2022/09/03 10:02:39;;;;;;;;;;;;;;;23.75;100.00;148688.34;5050932;28;19916;-77
2022/09/03 10:05:15;;;;;;;;;;;;;;;24.01;100.00;148753.88;5051360;28;19928;-75
2022/09/03 10:07:41;;;;;;;;;;;;;;;23.82;100.00;148705.06;5051107;28;19917;-75
2022/09/03 10:10:14;;;;;;;;;;;;;;;23.15;100.00;148538.16;5050556;28;20016;-75
2022/09/03 10:12:49;;;;;;;;;;;;;;;23.06;100.00;148515.03;5051088;28;19971;-75
2022/09/03 10:15:23;;;;;;;;;;;;;;;23.04;100.00;148509.84;5051489;28;19916;-82
2022/09/03 10:18:06;;;;;;;;;;;;;;;23.41;100.00;148602.31;5052786;28;19916;-74
2022/09/03 10:20:37;;;;;;;;;;;;;;;23.23;100.00;148557.41;5051745;28;19917;-73
2022/09/03 10:23:14;;;;;;;;;;;;;;;23.25;100.00;148563.81;5050365;28;20281;-76
2022/09/03 10:25:44;;;;;;;;;;;;;;;23.58;100.00;148645.94;5050743;28;20297;-76
2022/09/03 10:28:10;;;;;;;;;;;;;;;23.95;100.00;148738.47;5051027;28;19923;-81
2022/09/03 10:30:55;;;;;;;;;;;;;;;23.77;100.00;148693.50;5051087;28;19917;-76
2022/09/03 10:33:41;;;;;;;;;;;;;;;23.82;100.00;148705.06;5049177;28;19935;-79
2022/09/03 10:36:10;;;;;;;;;;;;;;;24.15;100.00;148787.28;5050411;28;19927;-81
2022/09/03 10:38:36;;;;;;;;;;;;;;;24.28;100.00;148820.66;5049755;28;19917;-77
2022/09/03 10:41:22;;;;;;;;;;;;;;;24.12;100.00;148780.84;5049659;28;19917;-75
2022/09/03 10:43:47;;;;;;;;;;;;;;;24.53;100.00;148883.63;5050733;28;19917;-78
2022/09/03 10:46:21;;;;;;;;;;;;;;;24.92;100.00;148980.00;5050801;28;19917;-77
2022/09/03 10:48:49;;;;;;;;;;;;;;;24.88;100.00;148971.00;5051018;28;19921;-77
2022/09/03 10:51:17;;;;;;;;;;;;;;;24.92;100.00;148980.00;5050420;28;19917;-76
2022/09/03 10:53:48;;;;;;;;;;;;;;;25.18;100.00;149044.25;5050934;28;19917;-78
2022/09/03 10:56:16;;;;;;;;;;;;;;;24.78;100.00;148945.34;5050557;28;19975;-77
2022/09/03 10:58:44;;;;;;;;;;;;;;;25.20;100.00;149050.69;5050307;28;19920;-78
2022/09/03 11:01:21;;;;;;;;;;;;;;;24.92;100.00;148980.00;5050777;28;20088;-77
2022/09/03 11:03:56;;;;;;;;;;;;;;;25.08;100.00;149019.84;5055028;28;19917;-80
2022/09/03 11:06:29;;;;;;;;;;;;;;;25.09;100.00;149022.41;5054865;28;20319;-76
2022/09/03 11:08:54;;;;;;;;;;;;;;;25.12;100.00;149028.84;5053071;28;20047;-77
2022/09/03 11:11:31;;;;;;;;;;;;;;;25.17;100.00;149041.69;5053976;28;20018;-76
2022/09/03 11:14:02;;;;;;;;;;;;;;;25.18;100.00;149045.53;5054305;28;19923;-79
2022/09/03 11:16:31;;;;;;;;;;;;;;;25.42;100.00;149104.75;5054717;28;20012;-76
2022/09/03 11:19:00;;;;;;;;;;;;;;;25.54;100.00;149134.28;5053975;28;20019;-76
2022/09/03 11:21:27;;;;;;;;;;;;;;;25.76;100.00;149190.84;5055446;28;19921;-81
2022/09/03 11:24:06;;;;;;;;;;;;;;;25.97;100.00;149243.59;5054549;28;19917;-77
2022/09/03 11:26:34;;;;;;;;;;;;;;;25.96;100.00;149239.69;5055651;28;19916;-82
2022/09/03 11:28:59;;;;;;;;;;;;;;;25.92;100.00;149229.44;5054065;28;19923;-77
2022/09/03 11:31:46;;;;;;;;;;;;;;;25.98;100.00;149246.19;5053910;28;20008;-76
2022/09/03 11:34:26;;;;;;;;;;;;;;;26.27;100.00;149318.22;5053476;28;19916;-77
2022/09/03 11:36:52;;;;;;;;;;;;;;;26.31;100.00;149327.19;5053823;28;19921;-76
2022/09/03 11:39:17;;;;;;;;;;;;;;;26.31;100.00;149328.47;5053453;28;19923;-76
2022/09/03 11:41:43;;;;;;;;;;;;;;;26.18;100.00;149295.06;5053799;28;19963;-80
2022/09/03 11:44:20;;;;;;;;;;;;;;;26.02;100.00;149255.16;5054129;28;20377;-76
2022/09/03 11:46:56;;;;;;;;;;;;;;;25.75;100.00;149187.00;5054629;28;19916;-79
2022/09/03 11:49:27;;;;;;;;;;;;;;;26.15;100.00;149287.34;5053798;28;19917;-77
2022/09/03 11:52:00;;;;;;;;;;;;;;;26.18;100.00;149295.06;5053464;28;19917;-75
2022/09/03 11:54:26;;;;;;;;;;;;;;;25.96;100.00;149239.69;5053455;28;19917;-77
2022/09/03 11:57:11;;;;;;;;;;;;;;;25.93;100.00;149231.97;5053247;28;19919;-78
2022/09/03 11:59:38;;;;;;;;;;;;;;;26.07;100.00;149266.72;5053042;28;20231;-77
2022/09/03 12:02:11;;;;;;;;;;;;;;;26.20;100.00;149298.91;5052861;28;19962;-76
2022/09/03 12:04:48;;;;;;;;;;;;;;;25.88;100.00;149220.41;5053273;28;20008;-74
2022/09/03 12:07:20;;;;;;;;;;;;;;;25.88;100.00;149219.13;5052843;28;19960;-74
2022/09/03 12:09:57;;;;;;;;;;;;;;;25.96;100.00;149239.69;5053407;28;20257;-76
2022/09/03 12:12:26;;;;;;;;;;;;;;;25.89;100.00;149221.72;5052777;28;19917;-75
2022/09/03 12:14:57;;;;;;;;;;;;;;;26.09;100.00;149273.19;5053518;28;19960;-76
2022/09/03 12:17:29;;;;;;;;;;;;;;;26.24;100.00;149309.19;5052607;28;19976;-76
2022/09/03 12:19:56;;;;;;;;;;;;;;;26.61;100.00;149403.06;5053331;28;20004;-75
2022/09/03 12:22:23;;;;;;;;;;;;;;;26.65;100.00;149413.41;5052298;28;19928;-75
2022/09/03 12:24:49;;;;;;;;;;;;;;;26.70;100.00;149425.00;5049667;28;19917;-75
2022/09/03 12:27:25;;;;;;;;;;;;;;;26.64;100.00;149409.50;5052422;28;20427;-75
2022/09/03 12:29:56;;;;;;;;;;;;;;;26.41;100.00;149351.63;5052818;28;19929;-75
2022/09/03 12:32:25;;;;;;;;;;;;;;;26.63;100.00;149406.91;5052630;28;20347;-79
2022/09/03 12:34:51;;;;;;;;;;;;;;;26.53;100.00;149382.50;5053043;28;19928;-76
2022/09/03 12:37:22;;;;;;;;;;;;;;;26.26;100.00;149315.63;5052083;28;20397;-77
2022/09/03 12:39:55;;;;;;;;;;;;;;;26.38;100.00;149343.91;5052944;28;20369;-76
2022/09/03 12:42:27;;;;;;;;;;;;;;;26.41;100.00;149352.88;5052220;28;19917;-76